Arena, WI

7:21 PM CDT on October 01, 2014 (GMT -0500)
Helena Road | Change Station
CLOSE
Current Station
Personal Weather Station
Location: Arena, WI
Elevation: 722 ft
Nearby Weather Stations

Elev 722 ft 43.18 °N, 89.98 °W | Updated 14 seconds ago

Overcast
Overcast
67.8 °F
Feels Like 67.8 °F
N
5.0
Wind Variable Wind from ESE
Gusts 9.0 mph

Today
High -- | Low -- °F
--% Chance of Precip.
Yesterday
High -- | Low -- °F
Precip. -- in
6:57 AM 6:40 PM
First Quarter, 52% visible
Pressure 30.01 in
Visibility 10.0 miles
Clouds Overcast 1800 ft
Dew Point 57 °F
Humidity 69%
Rainfall 0.00 in
Snow Depth Not available.
UV 0 out of 12
Pollen 3.00 out of 12
Air Quality Not available.
Flu Activity Not available.
METAR KLNR 302356Z AUTO 12010KT 10SM OVC018 12/06 A3001 RMK AO2 SLP160 T01170056 10133 20117 58005 TSNO

More Conditions Fewer Conditions

Pressure 30.01 in
Visibility 10.0 miles
Clouds Overcast 1800 ft
Dew Point 57 °F
Humidity 69%
Rainfall 0.00 in
Snow Depth Not available.
UV 0 out of 12
Pollen 3.00 out of 12
Air Quality Not available.
Flu Activity Not available.
METAR KLNR 302356Z AUTO 12010KT 10SM OVC018 12/06 A3001 RMK AO2 SLP160 T01170056 10133 20117 58005 TSNO

More Conditions Fewer Conditions

10-Day Weather Forecast

Almanac

Astronomy

Oct. 01, 2014 Rise Set
Actual Time 6:57 AM CDT 6:40 PM CDT
Civil Twilight 6:28 AM CDT 7:09 PM CDT
Nautical Twilight 5:55 AM CDT 7:42 PM CDT
Astronomical Twilight 5:22 AM CDT 8:15 PM CDT
Moon 2:04 PM CDT (10/1) No Moon Set
Length of Visible Light 12h 40m
Length of Day
11h 43m
Tomorrow will be 2m 56s shorter.
First Quarter, 52% of the Moon is Illuminated
Today
First Quarter
Oct 8
Full
Oct 15
Last Quarter
Oct 23
New
Oct 30
First Quarter

Today's Extremes

State Highs State Lows

Community

WunderPhotos

Upload Photos

1,758,097 photos uploaded!

WunderBlogs® & News

Nearby

Snow Depth

Station Depth Elevation
No new snow has been reported.

Earthquake Activity

City Distance Mag. Time & Date
No recent earthquake activity has been reported nearby.
Minimum magnitude displayed is 2.5.

Coastal Water Temperatures

Place Temperature
No Stations Reporting

Nearby Weather Stations